KDVT

Phoenix Deer Valley Airport

Phoenix, Arizona, USA
METAR KDVT 211353Z AUTO 14005KT 10SM CLR 24/M01 A2977 RMK AO2 SLP057 T02441006
Observed Flight Rules
May-21 @ 13:53 UTC (55 minutes ago) Visual Flight Rules
Wind Visibility Clouds
140° at 5 knots 10 miles
  • Clear skies
Temperatures Readings
Current 24°C / 75°F
Dewpoint -1°C / 30°F
Humidity 19%
Altimeter 29.77" Hg
Pressure 1005.7 hPa
Elevation 443
METAR KDVT 211353Z AUTO 14005KT 10SM CLR 24/M01 A2977 RMK AO2 SLP057 T02441006
Observed Flight Rules
May-21 @ 13:53 UTC
(55 minutes ago)
VFR
Wind Visibility
140° at 5 knots 10 miles
Clouds
  • Clear skies
Temperature Dewpoint
24°C / 75°F -1°C / 30°F
Humidity Altimeter Pressure
19% 29.77" Hg 1005.7 hPa